sensor_id;sensor_type;location;lat;lon;timestamp;pressure;altitude;pressure_sealevel;temperature;humidity
9009;BME280;62813;51.424;6.762;2022-09-09T00:01:43;100607.81;;;16.89;77.47
9009;BME280;62813;51.424;6.762;2022-09-09T00:07:28;100594.09;;;16.85;77.16
9009;BME280;62813;51.424;6.762;2022-09-09T00:10:09;100596.50;;;16.76;77.11
9009;BME280;62813;51.424;6.762;2022-09-09T00:15:41;100603.31;;;16.78;78.05
9009;BME280;62813;51.424;6.762;2022-09-09T00:18:49;100603.22;;;16.80;77.33
9009;BME280;62813;51.424;6.762;2022-09-09T00:21:18;100607.81;;;16.76;77.33
9009;BME280;62813;51.424;6.762;2022-09-09T00:23:50;100607.81;;;16.76;77.42
9009;BME280;62813;51.424;6.762;2022-09-09T00:26:38;100602.69;;;16.75;77.55
9009;BME280;62813;51.424;6.762;2022-09-09T00:31:38;100598.16;;;16.77;77.66
9009;BME280;62813;51.424;6.762;2022-09-09T00:34:18;100591.38;;;16.74;77.84
9009;BME280;62813;51.424;6.762;2022-09-09T00:36:48;100597.66;;;16.72;78.04
9009;BME280;62813;51.424;6.762;2022-09-09T00:39:36;100603.03;;;16.70;78.26
9009;BME280;62813;51.424;6.762;2022-09-09T00:42:16;100599.22;;;16.74;77.67
9009;BME280;62813;51.424;6.762;2022-09-09T00:44:53;100601.00;;;16.74;78.20
9009;BME280;62813;51.424;6.762;2022-09-09T00:47:35;100605.94;;;16.78;78.54
9009;BME280;62813;51.424;6.762;2022-09-09T00:53:25;100603.63;;;16.74;77.98
9009;BME280;62813;51.424;6.762;2022-09-09T00:56:06;100615.06;;;16.73;78.32
9009;BME280;62813;51.424;6.762;2022-09-09T00:58:35;100614.34;;;16.71;78.12
9009;BME280;62813;51.424;6.762;2022-09-09T01:01:09;100619.47;;;16.72;78.24
9009;BME280;62813;51.424;6.762;2022-09-09T01:03:57;100607.19;;;16.73;78.36
9009;BME280;62813;51.424;6.762;2022-09-09T01:06:34;100610.78;;;16.72;78.57
9009;BME280;62813;51.424;6.762;2022-09-09T01:09:30;100604.03;;;16.68;78.33
9009;BME280;62813;51.424;6.762;2022-09-09T01:12:12;100596.41;;;16.65;78.34
9009;BME280;62813;51.424;6.762;2022-09-09T01:15:10;100599.56;;;16.57;78.62
9009;BME280;62813;51.424;6.762;2022-09-09T01:17:50;100596.41;;;16.52;78.97
9009;BME280;62813;51.424;6.762;2022-09-09T01:20:29;100598.28;;;16.50;78.95
9009;BME280;62813;51.424;6.762;2022-09-09T01:28:50;100575.25;;;16.42;78.94
9009;BME280;62813;51.424;6.762;2022-09-09T01:31:40;100592.81;;;16.40;78.83
9009;BME280;62813;51.424;6.762;2022-09-09T01:34:15;100584.25;;;16.38;79.11
9009;BME280;62813;51.424;6.762;2022-09-09T01:36:49;100587.69;;;16.39;79.26
9009;BME280;62813;51.424;6.762;2022-09-09T01:39:20;100579.84;;;16.39;79.35
9009;BME280;62813;51.424;6.762;2022-09-09T01:41:47;100579.22;;;16.35;79.17
9009;BME280;62813;51.424;6.762;2022-09-09T01:44:13;100575.84;;;16.33;78.99
9009;BME280;62813;51.424;6.762;2022-09-09T01:46:40;100576.03;;;16.30;79.13
9009;BME280;62813;51.424;6.762;2022-09-09T01:49:08;100582.28;;;16.27;78.96
9009;BME280;62813;51.424;6.762;2022-09-09T01:51:37;100579.59;;;16.29;79.06
9009;BME280;62813;51.424;6.762;2022-09-09T01:54:04;100572.88;;;16.25;79.38
9009;BME280;62813;51.424;6.762;2022-09-09T01:59:36;100577.06;;;16.27;79.23
9009;BME280;62813;51.424;6.762;2022-09-09T02:02:17;100580.91;;;16.36;79.00
9009;BME280;62813;51.424;6.762;2022-09-09T02:05:17;100585.91;;;16.39;79.00
9009;BME280;62813;51.424;6.762;2022-09-09T02:07:49;100576.50;;;16.37;79.07
9009;BME280;62813;51.424;6.762;2022-09-09T02:10:42;100583.41;;;16.38;79.28
9009;BME280;62813;51.424;6.762;2022-09-09T02:13:14;100581.50;;;16.40;79.30
9009;BME280;62813;51.424;6.762;2022-09-09T02:15:53;100581.50;;;16.40;79.20
9009;BME280;62813;51.424;6.762;2022-09-09T02:18:55;100582.34;;;16.40;79.24
9009;BME280;62813;51.424;6.762;2022-09-09T02:21:24;100584.56;;;16.46;79.53
9009;BME280;62813;51.424;6.762;2022-09-09T02:23:52;100585.28;;;16.48;78.90
9009;BME280;62813;51.424;6.762;2022-09-09T02:26:21;100580.97;;;16.47;79.08
9009;BME280;62813;51.424;6.762;2022-09-09T02:28:51;100579.13;;;16.49;79.50
9009;BME280;62813;51.424;6.762;2022-09-09T02:31:22;100577.22;;;16.51;79.64
9009;BME280;62813;51.424;6.762;2022-09-09T02:33:54;100574.59;;;16.51;79.33
9009;BME280;62813;51.424;6.762;2022-09-09T02:36:24;100588.66;;;16.50;79.67
9009;BME280;62813;51.424;6.762;2022-09-09T02:38:52;100579.13;;;16.49;79.39
9009;BME280;62813;51.424;6.762;2022-09-09T02:41:24;100580.16;;;16.47;79.40
9009;BME280;62813;51.424;6.762;2022-09-09T02:43:52;100575.84;;;16.46;79.28
9009;BME280;62813;51.424;6.762;2022-09-09T02:52:13;100578.16;;;16.38;79.63
9009;BME280;62813;51.424;6.762;2022-09-09T02:54:42;100576.38;;;16.38;79.28
9009;BME280;62813;51.424;6.762;2022-09-09T02:57:28;100577.31;;;16.37;79.60
9009;BME280;62813;51.424;6.762;2022-09-09T02:59:58;100572.09;;;16.37;79.45
9009;BME280;62813;51.424;6.762;2022-09-09T03:02:25;100577.31;;;16.37;79.10
9009;BME280;62813;51.424;6.762;2022-09-09T03:04:52;100571.44;;;16.33;79.18
9009;BME280;62813;51.424;6.762;2022-09-09T03:07:19;100563.78;;;16.30;79.70
9009;BME280;62813;51.424;6.762;2022-09-09T03:09:46;100579.59;;;16.29;79.32
9009;BME280;62813;51.424;6.762;2022-09-09T03:12:13;100564.72;;;16.29;79.69
9009;BME280;62813;51.424;6.762;2022-09-09T03:14:39;100568.28;;;16.28;79.60
9009;BME280;62813;51.424;6.762;2022-09-09T03:17:06;100566.50;;;16.29;79.62
9009;BME280;62813;51.424;6.762;2022-09-09T03:19:32;100565.56;;;16.30;79.87
9009;BME280;62813;51.424;6.762;2022-09-09T03:22:01;100568.09;;;16.31;79.21
9009;BME280;62813;51.424;6.762;2022-09-09T03:24:30;100570.41;;;16.36;79.35
9009;BME280;62813;51.424;6.762;2022-09-09T03:26:57;100570.19;;;16.39;79.57
9009;BME280;62813;51.424;6.762;2022-09-09T03:29:23;100570.19;;;16.39;79.34
9009;BME280;62813;51.424;6.762;2022-09-09T03:31:50;100568.53;;;16.38;79.83
9009;BME280;62813;51.424;6.762;2022-09-09T03:34:17;100571.88;;;16.40;79.85
9009;BME280;62813;51.424;6.762;2022-09-09T03:36:44;100570.09;;;16.41;79.83
9009;BME280;62813;51.424;6.762;2022-09-09T03:39:10;100570.91;;;16.41;79.74
9009;BME280;62813;51.424;6.762;2022-09-09T03:41:37;100562.88;;;16.44;79.86
9009;BME280;62813;51.424;6.762;2022-09-09T03:44:04;100567.28;;;16.44;79.36
9009;BME280;62813;51.424;6.762;2022-09-09T03:46:31;100570.00;;;16.42;79.69
9009;BME280;62813;51.424;6.762;2022-09-09T03:48:58;100564.97;;;16.39;80.11
9009;BME280;62813;51.424;6.762;2022-09-09T03:51:24;100565.19;;;16.36;80.30
9009;BME280;62813;51.424;6.762;2022-09-09T03:53:51;100566.00;;;16.37;80.43
9009;BME280;62813;51.424;6.762;2022-09-09T03:56:18;100565.19;;;16.36;80.59
9009;BME280;62813;51.424;6.762;2022-09-09T03:58:44;100562.00;;;16.31;80.32
9009;BME280;62813;51.424;6.762;2022-09-09T04:01:12;100558.66;;;16.29;80.80
9009;BME280;62813;51.424;6.762;2022-09-09T04:03:40;100561.47;;;16.26;80.42
9009;BME280;62813;51.424;6.762;2022-09-09T04:06:09;100566.69;;;16.26;80.69
9009;BME280;62813;51.424;6.762;2022-09-09T04:08:37;100563.88;;;16.29;80.57
9009;BME280;62813;51.424;6.762;2022-09-09T04:11:05;100563.78;;;16.30;80.49
9009;BME280;62813;51.424;6.762;2022-09-09T04:13:37;100561.16;;;16.30;80.62
9009;BME280;62813;51.424;6.762;2022-09-09T04:16:05;100562.75;;;16.33;80.68
9009;BME280;62813;51.424;6.762;2022-09-09T04:18:32;100562.00;;;16.31;80.28
9009;BME280;62813;51.424;6.762;2022-09-09T04:21:01;100564.72;;;16.29;80.86
9009;BME280;62813;51.424;6.762;2022-09-09T04:23:29;100567.34;;;16.29;80.80
9009;BME280;62813;51.424;6.762;2022-09-09T04:25:57;100569.66;;;16.34;80.96
9009;BME280;62813;51.424;6.762;2022-09-09T04:28:27;100565.38;;;16.33;80.61
9009;BME280;62813;51.424;6.762;2022-09-09T04:30:54;100564.34;;;16.35;80.15
9009;BME280;62813;51.424;6.762;2022-09-09T04:33:24;100571.25;;;16.37;80.49
9009;BME280;62813;51.424;6.762;2022-09-09T04:35:52;100571.88;;;16.40;80.52
9009;BME280;62813;51.424;6.762;2022-09-09T04:38:20;100560.38;;;16.43;80.20
9009;BME280;62813;51.424;6.762;2022-09-09T04:40:50;100566.44;;;16.43;79.72
9009;BME280;62813;51.424;6.762;2022-09-09T04:43:18;100568.09;;;16.44;79.57
9009;BME280;62813;51.424;6.762;2022-09-09T04:45:49;100559.53;;;16.42;80.11
9009;BME280;62813;51.424;6.762;2022-09-09T04:48:18;100565.50;;;16.44;79.58
9009;BME280;62813;51.424;6.762;2022-09-09T04:50:57;100569.06;;;16.43;79.49
9009;BME280;62813;51.424;6.762;2022-09-09T04:53:24;100570.63;;;16.46;79.53
9009;BME280;62813;51.424;6.762;2022-09-09T04:55:53;100571.44;;;16.46;79.60
9009;BME280;62813;51.424;6.762;2022-09-09T04:58:19;100567.88;;;16.47;79.39
9009;BME280;62813;51.424;6.762;2022-09-09T05:00:48;100574.78;;;16.48;79.57
9009;BME280;62813;51.424;6.762;2022-09-09T05:03:14;100574.78;;;16.48;79.33
9009;BME280;62813;51.424;6.762;2022-09-09T05:05:41;100568.63;;;16.49;79.43
9009;BME280;62813;51.424;6.762;2022-09-09T05:08:08;100569.47;;;16.50;79.48
9009;BME280;62813;51.424;6.762;2022-09-09T05:10:37;100570.31;;;16.50;79.45
9009;BME280;62813;51.424;6.762;2022-09-09T05:13:04;100569.25;;;16.53;78.91
9009;BME280;62813;51.424;6.762;2022-09-09T05:15:31;100566.53;;;16.54;79.46
9009;BME280;62813;51.424;6.762;2022-09-09T05:18:01;100565.56;;;16.55;78.79
9009;BME280;62813;51.424;6.762;2022-09-09T05:20:28;100567.28;;;16.56;79.01
9009;BME280;62813;51.424;6.762;2022-09-09T05:22:56;100564.31;;;16.61;78.31
9009;BME280;62813;51.424;6.762;2022-09-09T05:25:23;100559.06;;;16.61;78.79
9009;BME280;62813;51.424;6.762;2022-09-09T05:27:52;100555.50;;;16.62;78.34
9009;BME280;62813;51.424;6.762;2022-09-09T05:30:21;100552.06;;;16.61;78.69
9009;BME280;62813;51.424;6.762;2022-09-09T05:32:49;100550.91;;;16.66;77.95
9009;BME280;62813;51.424;6.762;2022-09-09T05:35:16;100555.19;;;16.67;78.51
9009;BME280;62813;51.424;6.762;2022-09-09T05:37:44;100561.16;;;16.69;78.44
9009;BME280;62813;51.424;6.762;2022-09-09T05:40:12;100556.34;;;16.75;77.69
9009;BME280;62813;51.424;6.762;2022-09-09T05:42:39;100560.44;;;16.79;77.91
9009;BME280;62813;51.424;6.762;2022-09-09T05:45:07;100553.28;;;16.81;77.42
9009;BME280;62813;51.424;6.762;2022-09-09T05:47:35;100559.25;;;16.83;77.47
9009;BME280;62813;51.424;6.762;2022-09-09T05:50:04;100559.91;;;16.87;77.10
9009;BME280;62813;51.424;6.762;2022-09-09T05:52:30;100561.38;;;16.91;77.43
9009;BME280;62813;51.424;6.762;2022-09-09T05:54:58;100568.16;;;16.94;77.01
9009;BME280;62813;51.424;6.762;2022-09-09T05:57:25;100562.63;;;16.98;77.12
9009;BME280;62813;51.424;6.762;2022-09-09T05:59:52;100564.28;;;16.99;76.76
9009;BME280;62813;51.424;6.762;2022-09-09T06:02:20;100567.41;;;17.04;76.72
9009;BME280;62813;51.424;6.762;2022-09-09T06:04:46;100569.19;;;17.04;77.01
9009;BME280;62813;51.424;6.762;2022-09-09T06:07:13;100564.78;;;17.04;76.45
9009;BME280;62813;51.424;6.762;2022-09-09T06:09:40;100563.63;;;17.08;76.61
9009;BME280;62813;51.424;6.762;2022-09-09T06:12:07;100571.38;;;17.10;76.51
9009;BME280;62813;51.424;6.762;2022-09-09T06:14:34;100570.34;;;17.12;76.67
9009;BME280;62813;51.424;6.762;2022-09-09T06:17:00;100568.44;;;17.14;76.67
9009;BME280;62813;51.424;6.762;2022-09-09T06:19:28;100568.22;;;17.17;76.43
9009;BME280;62813;51.424;6.762;2022-09-09T06:21:55;100570.63;;;17.21;75.70
9009;BME280;62813;51.424;6.762;2022-09-09T06:24:21;100576.34;;;17.26;75.60
9009;BME280;62813;51.424;6.762;2022-09-09T06:26:48;100575.22;;;17.30;75.83
9009;BME280;62813;51.424;6.762;2022-09-09T06:29:15;100578.34;;;17.35;75.80
9009;BME280;62813;51.424;6.762;2022-09-09T06:31:41;100578.13;;;17.38;75.65
9009;BME280;62813;51.424;6.762;2022-09-09T06:34:08;100572.22;;;17.47;75.26
9009;BME280;62813;51.424;6.762;2022-09-09T06:36:37;100570.38;;;17.60;74.88
9009;BME280;62813;51.424;6.762;2022-09-09T06:39:06;100579.88;;;17.74;74.33
9009;BME280;62813;51.424;6.762;2022-09-09T06:41:39;100578.84;;;17.77;73.65
9009;BME280;62813;51.424;6.762;2022-09-09T06:44:06;100575.75;;;17.83;73.94
9009;BME280;62813;51.424;6.762;2022-09-09T06:46:33;100580.66;;;17.87;73.30
9009;BME280;62813;51.424;6.762;2022-09-09T06:49:00;100576.84;;;17.91;73.48
9009;BME280;62813;51.424;6.762;2022-09-09T06:51:31;100576.50;;;17.96;72.44
9009;BME280;62813;51.424;6.762;2022-09-09T06:53:59;100587.50;;;18.01;71.66
9009;BME280;62813;51.424;6.762;2022-09-09T06:59:01;100588.13;;;18.05;71.59
9009;BME280;62813;51.424;6.762;2022-09-09T07:01:32;100585.97;;;17.98;70.53
9009;BME280;62813;51.424;6.762;2022-09-09T07:03:59;100587.25;;;17.93;71.04
9009;BME280;62813;51.424;6.762;2022-09-09T07:06:38;100588.31;;;17.90;71.53
9009;BME280;62813;51.424;6.762;2022-09-09T07:09:08;100591.66;;;17.92;71.56
9009;BME280;62813;51.424;6.762;2022-09-09T07:14:06;100587.00;;;17.96;69.63
9009;BME280;62813;51.424;6.762;2022-09-09T07:16:34;100590.97;;;18.02;69.88
9009;BME280;62813;51.424;6.762;2022-09-09T07:19:03;100591.97;;;18.12;69.21
9009;BME280;62813;51.424;6.762;2022-09-09T07:21:32;100596.91;;;18.27;68.21
9009;BME280;62813;51.424;6.762;2022-09-09T07:23:59;100595.78;;;18.43;67.89
9009;BME280;62813;51.424;6.762;2022-09-09T07:26:29;100600.56;;;18.49;67.99
9009;BME280;62813;51.424;6.762;2022-09-09T07:28:56;100589.34;;;18.47;67.83
9009;BME280;62813;51.424;6.762;2022-09-09T07:31:34;100601.03;;;18.43;67.30
9009;BME280;62813;51.424;6.762;2022-09-09T07:34:04;100600.91;;;18.44;67.89
9009;BME280;62813;51.424;6.762;2022-09-09T07:36:33;100605.09;;;18.47;67.54
9009;BME280;62813;51.424;6.762;2022-09-09T07:39:06;100605.44;;;18.42;67.49
9009;BME280;62813;51.424;6.762;2022-09-09T07:41:41;100599.72;;;18.48;66.73
9009;BME280;62813;51.424;6.762;2022-09-09T07:44:13;100601.53;;;18.59;66.38
9009;BME280;62813;51.424;6.762;2022-09-09T07:46:41;100611.22;;;18.70;66.11
9009;BME280;62813;51.424;6.762;2022-09-09T07:49:08;100608.25;;;18.74;65.64
9009;BME280;62813;51.424;6.762;2022-09-09T07:51:38;100608.50;;;18.83;64.58
9009;BME280;62813;51.424;6.762;2022-09-09T07:54:08;100611.34;;;18.79;64.31
9009;BME280;62813;51.424;6.762;2022-09-09T07:56:35;100611.56;;;18.88;64.72
9009;BME280;62813;51.424;6.762;2022-09-09T07:59:05;100602.75;;;19.11;64.14
9009;BME280;62813;51.424;6.762;2022-09-09T08:01:38;100613.50;;;19.19;62.97
9009;BME280;62813;51.424;6.762;2022-09-09T08:04:08;100614.69;;;19.26;62.96
9009;BME280;62813;51.424;6.762;2022-09-09T08:06:39;100614.44;;;19.41;61.97
9009;BME280;62813;51.424;6.762;2022-09-09T08:09:07;100603.44;;;19.47;61.97
9009;BME280;62813;51.424;6.762;2022-09-09T08:11:34;100610.09;;;19.51;60.81
9009;BME280;62813;51.424;6.762;2022-09-09T08:14:05;100612.03;;;19.26;61.03
9009;BME280;62813;51.424;6.762;2022-09-09T08:16:35;100615.88;;;19.22;61.38
9009;BME280;62813;51.424;6.762;2022-09-09T08:19:03;100614.81;;;19.14;61.73
9009;BME280;62813;51.424;6.762;2022-09-09T08:21:31;100608.81;;;19.23;61.68
9009;BME280;62813;51.424;6.762;2022-09-09T08:24:00;100610.03;;;19.19;60.40
9009;BME280;62813;51.424;6.762;2022-09-09T08:26:30;100615.41;;;19.17;61.46
9009;BME280;62813;51.424;6.762;2022-09-09T08:28:58;100615.38;;;19.28;60.67
9009;BME280;62813;51.424;6.762;2022-09-09T08:31:37;100612.28;;;19.23;59.87
9009;BME280;62813;51.424;6.762;2022-09-09T08:34:05;100615.88;;;19.33;60.30
9009;BME280;62813;51.424;6.762;2022-09-09T08:36:35;100614.94;;;19.46;59.93
9009;BME280;62813;51.424;6.762;2022-09-09T08:39:04;100613.28;;;19.66;59.31
9009;BME280;62813;51.424;6.762;2022-09-09T08:49:42;100611.97;;;19.71;58.43
9009;BME280;62813;51.424;6.762;2022-09-09T08:52:18;100610.59;;;19.88;58.80
9009;BME280;62813;51.424;6.762;2022-09-09T08:54:46;100602.00;;;20.07;58.42
9009;BME280;62813;51.424;6.762;2022-09-09T08:57:23;100603.84;;;20.27;58.11
9009;BME280;62813;51.424;6.762;2022-09-09T08:59:55;100599.41;;;20.49;57.01
9009;BME280;62813;51.424;6.762;2022-09-09T09:02:46;100600.88;;;20.62;55.70
9009;BME280;62813;51.424;6.762;2022-09-09T09:11:02;100616.28;;;20.25;56.46
9009;BME280;62813;51.424;6.762;2022-09-09T09:13:35;100619.25;;;20.11;56.70
9009;BME280;62813;51.424;6.762;2022-09-09T09:18:46;100622.19;;;19.97;57.41
9009;BME280;62813;51.424;6.762;2022-09-09T09:21:16;100622.75;;;20.00;57.92
9009;BME280;62813;51.424;6.762;2022-09-09T09:23:58;100624.53;;;20.00;57.23
9009;BME280;62813;51.424;6.762;2022-09-09T09:26:31;100619.22;;;19.90;56.71
9009;BME280;62813;51.424;6.762;2022-09-09T09:29:03;100621.47;;;19.95;56.93
9009;BME280;62813;51.424;6.762;2022-09-09T09:31:35;100627.69;;;19.94;57.44
9009;BME280;62813;51.424;6.762;2022-09-09T09:34:02;100618.44;;;19.99;57.51
9009;BME280;62813;51.424;6.762;2022-09-09T09:36:40;100626.97;;;19.91;57.57
9009;BME280;62813;51.424;6.762;2022-09-09T09:39:08;100621.84;;;19.90;57.76
9009;BME280;62813;51.424;6.762;2022-09-09T09:41:55;100617.41;;;19.90;58.28
9009;BME280;62813;51.424;6.762;2022-09-09T09:44:31;100626.28;;;19.89;57.93
9009;BME280;62813;51.424;6.762;2022-09-09T09:47:18;100627.19;;;20.00;57.63
9009;BME280;62813;51.424;6.762;2022-09-09T09:50:18;100623.34;;;20.04;58.10
9009;BME280;62813;51.424;6.762;2022-09-09T09:52:54;100632.34;;;20.01;57.60
9009;BME280;62813;51.424;6.762;2022-09-09T09:55:21;100630.28;;;20.05;57.88
9009;BME280;62813;51.424;6.762;2022-09-09T09:57:50;100621.28;;;20.07;57.45
9009;BME280;62813;51.424;6.762;2022-09-09T10:00:20;100623.53;;;20.12;57.42
9009;BME280;62813;51.424;6.762;2022-09-09T10:02:48;100616.75;;;20.09;55.45
9009;BME280;62813;51.424;6.762;2022-09-09T10:05:28;100623.75;;;20.20;55.59
9009;BME280;62813;51.424;6.762;2022-09-09T10:08:13;100625.53;;;20.31;55.30
9009;BME280;62813;51.424;6.762;2022-09-09T10:14:11;100619.06;;;20.65;53.69
9009;BME280;62813;51.424;6.762;2022-09-09T10:19:13;100614.50;;;20.67;52.87
9009;BME280;62813;51.424;6.762;2022-09-09T10:24:42;100614.88;;;20.63;53.17
9009;BME280;62813;51.424;6.762;2022-09-09T10:30:18;100610.22;;;20.45;53.75
9009;BME280;62813;51.424;6.762;2022-09-09T10:36:19;100601.19;;;20.48;53.62
9009;BME280;62813;51.424;6.762;2022-09-09T10:38:53;100607.13;;;20.40;54.20
9009;BME280;62813;51.424;6.762;2022-09-09T10:41:51;100608.38;;;20.36;54.73
9009;BME280;62813;51.424;6.762;2022-09-09T10:44:53;100605.56;;;20.17;55.19
9009;BME280;62813;51.424;6.762;2022-09-09T10:47:45;100602.28;;;20.04;55.72
9009;BME280;62813;51.424;6.762;2022-09-09T10:53:01;100597.19;;;20.12;55.51
9009;BME280;62813;51.424;6.762;2022-09-09T10:55:36;100602.31;;;20.13;55.24
9009;BME280;62813;51.424;6.762;2022-09-09T10:58:04;100600.16;;;20.18;54.77
9009;BME280;62813;51.424;6.762;2022-09-09T11:00:42;100591.50;;;20.28;54.99
9009;BME280;62813;51.424;6.762;2022-09-09T11:03:27;100593.69;;;20.43;54.44
9009;BME280;62813;51.424;6.762;2022-09-09T11:06:04;100590.13;;;20.54;54.02
9009;BME280;62813;51.424;6.762;2022-09-09T11:08:36;100586.47;;;20.66;53.81
9009;BME280;62813;51.424;6.762;2022-09-09T11:16:24;100584.91;;;20.64;53.15
9009;BME280;62813;51.424;6.762;2022-09-09T11:18:58;100589.59;;;20.51;53.71
9009;BME280;62813;51.424;6.762;2022-09-09T11:21:36;100592.22;;;20.51;54.45
9009;BME280;62813;51.424;6.762;2022-09-09T11:24:16;100595.28;;;20.56;55.02
9009;BME280;62813;51.424;6.762;2022-09-09T11:26:51;100590.31;;;20.62;54.79
9009;BME280;62813;51.424;6.762;2022-09-09T11:32:54;100580.25;;;20.77;54.61
9009;BME280;62813;51.424;6.762;2022-09-09T11:35:53;100576.47;;;21.00;53.40
9009;BME280;62813;51.424;6.762;2022-09-09T11:38:43;100576.97;;;21.25;52.29
9009;BME280;62813;51.424;6.762;2022-09-09T11:41:11;100575.38;;;21.13;52.25
9009;BME280;62813;51.424;6.762;2022-09-09T11:43:51;100577.78;;;21.16;52.38
9009;BME280;62813;51.424;6.762;2022-09-09T11:46:32;100583.09;;;20.95;52.07
9009;BME280;62813;51.424;6.762;2022-09-09T11:49:02;100583.91;;;20.86;53.29
9009;BME280;62813;51.424;6.762;2022-09-09T11:51:31;100576.38;;;20.81;52.99
9009;BME280;62813;51.424;6.762;2022-09-09T11:54:21;100580.56;;;20.84;52.83
9009;BME280;62813;51.424;6.762;2022-09-09T11:56:49;100585.13;;;20.82;52.51
9009;BME280;62813;51.424;6.762;2022-09-09T11:59:31;100577.56;;;20.98;52.54
9009;BME280;62813;51.424;6.762;2022-09-09T12:06:58;100579.97;;;21.11;51.55
9009;BME280;62813;51.424;6.762;2022-09-09T12:09:45;100572.03;;;21.01;52.16
9009;BME280;62813;51.424;6.762;2022-09-09T12:17:30;100582.56;;;20.70;54.52
9009;BME280;62813;51.424;6.762;2022-09-09T12:20:22;100596.59;;;20.71;54.71
9009;BME280;62813;51.424;6.762;2022-09-09T12:28:31;100589.53;;;21.12;53.77
9009;BME280;62813;51.424;6.762;2022-09-09T12:31:26;100596.16;;;20.96;53.33
9009;BME280;62813;51.424;6.762;2022-09-09T12:33:54;100622.22;;;20.80;54.60
9009;BME280;62813;51.424;6.762;2022-09-09T12:36:32;100626.69;;;20.59;57.53
9009;BME280;62813;51.424;6.762;2022-09-09T12:41:58;100618.31;;;20.01;63.94
9009;BME280;62813;51.424;6.762;2022-09-09T12:44:26;100622.00;;;19.77;65.74
9009;BME280;62813;51.424;6.762;2022-09-09T12:46:59;100623.34;;;19.72;65.95
9009;BME280;62813;51.424;6.762;2022-09-09T12:49:32;100630.69;;;19.57;67.07
9009;BME280;62813;51.424;6.762;2022-09-09T12:52:03;100621.47;;;19.51;67.99
9009;BME280;62813;51.424;6.762;2022-09-09T12:54:36;100627.81;;;19.49;68.26
9009;BME280;62813;51.424;6.762;2022-09-09T12:57:04;100637.31;;;19.40;69.39
9009;BME280;62813;51.424;6.762;2022-09-09T12:59:37;100628.31;;;19.31;68.97
9009;BME280;62813;51.424;6.762;2022-09-09T13:02:16;100630.72;;;19.12;70.55
9009;BME280;62813;51.424;6.762;2022-09-09T13:04:44;100648.53;;;18.97;71.24
9009;BME280;62813;51.424;6.762;2022-09-09T13:07:11;100639.69;;;18.76;71.98
9009;BME280;62813;51.424;6.762;2022-09-09T13:09:38;100635.47;;;18.73;72.82
9009;BME280;62813;51.424;6.762;2022-09-09T13:12:13;100628.06;;;18.78;72.83
9009;BME280;62813;51.424;6.762;2022-09-09T13:14:43;100625.09;;;18.83;72.84
9009;BME280;62813;51.424;6.762;2022-09-09T13:17:24;100615.16;;;18.87;73.21
9009;BME280;62813;51.424;6.762;2022-09-09T13:19:52;100609.69;;;18.90;72.58
9009;BME280;62813;51.424;6.762;2022-09-09T13:22:35;100605.38;;;19.11;70.89
9009;BME280;62813;51.424;6.762;2022-09-09T13:25:06;100606.91;;;19.36;71.92
9009;BME280;62813;51.424;6.762;2022-09-09T13:27:59;100594.41;;;19.60;71.35
9009;BME280;62813;51.424;6.762;2022-09-09T13:30:31;100597.94;;;19.82;69.95
9009;BME280;62813;51.424;6.762;2022-09-09T13:35:54;100590.81;;;19.94;69.55
9009;BME280;62813;51.424;6.762;2022-09-09T13:38:23;100583.38;;;19.99;68.96
9009;BME280;62813;51.424;6.762;2022-09-09T13:41:09;100579.88;;;19.77;68.69
9009;BME280;62813;51.424;6.762;2022-09-09T13:43:45;100573.94;;;19.64;69.08
9009;BME280;62813;51.424;6.762;2022-09-09T13:46:36;100569.75;;;19.61;69.18
9009;BME280;62813;51.424;6.762;2022-09-09T13:51:36;100573.50;;;20.33;68.29
9009;BME280;62813;51.424;6.762;2022-09-09T13:54:09;100568.25;;;20.63;67.31
9009;BME280;62813;51.424;6.762;2022-09-09T13:56:37;100564.78;;;20.93;65.90
9009;BME280;62813;51.424;6.762;2022-09-09T13:59:09;100564.63;;;21.35;63.70
9009;BME280;62813;51.424;6.762;2022-09-09T14:01:37;100565.75;;;21.62;60.70
9009;BME280;62813;51.424;6.762;2022-09-09T14:04:04;100563.13;;;21.81;61.15
9009;BME280;62813;51.424;6.762;2022-09-09T14:06:34;100572.44;;;21.66;61.08
9009;BME280;62813;51.424;6.762;2022-09-09T14:09:09;100563.25;;;21.50;60.21
9009;BME280;62813;51.424;6.762;2022-09-09T14:11:36;100558.09;;;21.30;61.54
9009;BME280;62813;51.424;6.762;2022-09-09T14:14:02;100562.09;;;21.24;61.35
9009;BME280;62813;51.424;6.762;2022-09-09T14:16:29;100555.44;;;21.30;60.71
9009;BME280;62813;51.424;6.762;2022-09-09T14:18:56;100546.41;;;21.32;61.89
9009;BME280;62813;51.424;6.762;2022-09-09T14:21:24;100552.13;;;21.47;60.83
9009;BME280;62813;51.424;6.762;2022-09-09T14:23:51;100546.59;;;21.79;60.59
9009;BME280;62813;51.424;6.762;2022-09-09T14:26:20;100550.16;;;21.97;59.26
9009;BME280;62813;51.424;6.762;2022-09-09T14:28:48;100537.94;;;21.77;59.00
9009;BME280;62813;51.424;6.762;2022-09-09T14:31:24;100544.06;;;21.48;59.60
9009;BME280;62813;51.424;6.762;2022-09-09T14:33:51;100553.41;;;21.03;60.15
9009;BME280;62813;51.424;6.762;2022-09-09T14:36:18;100554.22;;;20.63;61.15
9009;BME280;62813;51.424;6.762;2022-09-09T14:38:45;100611.94;;;19.82;70.02
9009;BME280;62813;51.424;6.762;2022-09-09T14:41:14;100617.78;;;19.09;68.98
9009;BME280;62813;51.424;6.762;2022-09-09T14:43:44;100626.13;;;18.58;71.30
9009;BME280;62813;51.424;6.762;2022-09-09T14:46:13;100625.81;;;18.27;71.59
9009;BME280;62813;51.424;6.762;2022-09-09T14:48:40;100628.13;;;18.08;71.64
9009;BME280;62813;51.424;6.762;2022-09-09T14:51:12;100624.44;;;17.87;73.01
9009;BME280;62813;51.424;6.762;2022-09-09T14:53:42;100617.81;;;17.70;73.32
9009;BME280;62813;51.424;6.762;2022-09-09T14:56:17;100604.50;;;17.60;73.37
9009;BME280;62813;51.424;6.762;2022-09-09T14:58:45;100605.91;;;17.53;74.23
9009;BME280;62813;51.424;6.762;2022-09-09T15:01:14;100593.22;;;17.47;73.42
9009;BME280;62813;51.424;6.762;2022-09-09T15:03:43;100596.59;;;17.49;73.67
9009;BME280;62813;51.424;6.762;2022-09-09T15:06:14;100596.16;;;17.55;74.07